HTDA/DAR METAR and TAF weather

Enter ICAO airport designator
Station Type Date Time Source
HTDA METAR 2020/07/11 19:00 UTC NOAA

HTDA 111900Z 00000KT 9999 FEW013 24/21 Q1017 NOSIG


Station Type Date Time Source
HTDA Decoded METAR 2020/07/11 19:00 UTC NOAA

Dar Es Salaam Airport, Tanzania (HTDA) 06-52S 039-12E 55M
Jul 11, 2020 - 03:00 PM EDT / 2020.07.11 1900 UTC
Wind: Calm:0
Visibility: greater than 7 mile(s):0
Sky conditions: mostly clear
Temperature: 75 F (24 C)
Dew Point: 69 F (21 C)
Relative Humidity: 83%
Pressure (altimeter): 30.03 in. Hg (1017 hPa)
ob: HTDA 111900Z 00000KT 9999 FEW013 24/21 Q1017 NOSIG
cycle: 19

Station Type Date Time Source
HTDA TAF 2020/07/11 18:33 UTC NOAA

TAF TAF HTDA 111700Z 1118/1224 17005KT 9999 SCT011
BECMG 1206/1209 16015KT BKN027
BECMG 1216/1219 17005KT SCT012

Example: see airport list